sensor_id;sensor_type;location;lat;lon;timestamp;pressure;altitude;pressure_sealevel;temperature;humidity
58955;BME280;45815;52.334;5.024;2022-09-27T00:00:16;99739.22;;;11.16;100.00
58955;BME280;45815;52.334;5.024;2022-09-27T00:02:41;99741.84;;;11.16;100.00
58955;BME280;45815;52.334;5.024;2022-09-27T00:05:07;99742.72;;;11.18;100.00
58955;BME280;45815;52.334;5.024;2022-09-27T00:07:32;99747.13;;;11.19;100.00
58955;BME280;45815;52.334;5.024;2022-09-27T00:09:58;99743.63;;;11.14;100.00
58955;BME280;45815;52.334;5.024;2022-09-27T00:12:23;99739.25;;;11.15;100.00
58955;BME280;45815;52.334;5.024;2022-09-27T00:14:49;99750.63;;;11.15;100.00
58955;BME280;45815;52.334;5.024;2022-09-27T00:17:14;99740.97;;;11.16;100.00
58955;BME280;45815;52.334;5.024;2022-09-27T00:19:40;99734.84;;;11.15;100.00
58955;BME280;45815;52.334;5.024;2022-09-27T00:22:05;99726.13;;;11.06;100.00
58955;BME280;45815;52.334;5.024;2022-09-27T00:24:30;99729.59;;;11.09;100.00
58955;BME280;45815;52.334;5.024;2022-09-27T00:26:56;99722.63;;;11.04;100.00
58955;BME280;45815;52.334;5.024;2022-09-27T00:29:21;99730.50;;;11.10;100.00
58955;BME280;45815;52.334;5.024;2022-09-27T00:31:47;99730.47;;;11.11;100.00
58955;BME280;45815;52.334;5.024;2022-09-27T00:34:19;99733.09;;;11.11;100.00
58955;BME280;45815;52.334;5.024;2022-09-27T00:36:46;99734.84;;;11.09;100.00
58955;BME280;45815;52.334;5.024;2022-09-27T00:39:12;99732.22;;;11.09;100.00
58955;BME280;45815;52.334;5.024;2022-09-27T00:41:37;99741.88;;;11.10;100.00
58955;BME280;45815;52.334;5.024;2022-09-27T00:44:46;99747.97;;;11.09;100.00
58955;BME280;45815;52.334;5.024;2022-09-27T00:47:02;99741.00;;;11.05;100.00
58955;BME280;45815;52.334;5.024;2022-09-27T00:52:02;99747.09;;;11.07;100.00
58955;BME280;45815;52.334;5.024;2022-09-27T00:54:29;99747.13;;;11.10;100.00
58955;BME280;45815;52.334;5.024;2022-09-27T00:56:57;99745.38;;;11.12;100.00
58955;BME280;45815;52.334;5.024;2022-09-27T00:59:30;99754.97;;;11.12;100.00
58955;BME280;45815;52.334;5.024;2022-09-27T01:01:57;99756.75;;;11.14;100.00
58955;BME280;45815;52.334;5.024;2022-09-27T01:04:27;99752.38;;;11.13;100.00
58955;BME280;45815;52.334;5.024;2022-09-27T01:06:53;99754.13;;;11.08;100.00
58955;BME280;45815;52.334;5.024;2022-09-27T01:09:19;99755.84;;;11.09;100.00
58955;BME280;45815;52.334;5.024;2022-09-27T01:12:07;99768.13;;;11.04;100.00
58955;BME280;45815;52.334;5.024;2022-09-27T01:28:09;99762.91;;;10.98;100.00
58955;BME280;45815;52.334;5.024;2022-09-27T01:30:49;99754.13;;;10.96;100.00
58955;BME280;45815;52.334;5.024;2022-09-27T01:36:07;99761.09;;;10.91;100.00
58955;BME280;45815;52.334;5.024;2022-09-27T01:42:21;99762.88;;;10.92;100.00
58955;BME280;45815;52.334;5.024;2022-09-27T01:44:58;99762.00;;;10.93;100.00
58955;BME280;45815;52.334;5.024;2022-09-27T01:47:57;99757.63;;;10.92;100.00
58955;BME280;45815;52.334;5.024;2022-09-27T01:50:50;99759.38;;;10.99;100.00
58955;BME280;45815;52.334;5.024;2022-09-27T01:53:20;99760.25;;;11.01;100.00
58955;BME280;45815;52.334;5.024;2022-09-27T01:56:12;99749.75;;;11.04;100.00
58955;BME280;45815;52.334;5.024;2022-09-27T02:01:47;99750.63;;;11.06;100.00
58955;BME280;45815;52.334;5.024;2022-09-27T02:04:18;99745.34;;;11.05;100.00
58955;BME280;45815;52.334;5.024;2022-09-27T02:07:07;99736.63;;;10.98;100.00
58955;BME280;45815;52.334;5.024;2022-09-27T02:09:40;99740.09;;;11.00;100.00
58955;BME280;45815;52.334;5.024;2022-09-27T02:12:21;99726.97;;;10.95;100.00
58955;BME280;45815;52.334;5.024;2022-09-27T02:15:09;99739.25;;;10.96;100.00
58955;BME280;45815;52.334;5.024;2022-09-27T02:17:48;99734.88;;;10.97;100.00
58955;BME280;45815;52.334;5.024;2022-09-27T02:20:28;99731.38;;;10.92;100.00
58955;BME280;45815;52.334;5.024;2022-09-27T02:25:51;99735.75;;;10.91;100.00
58955;BME280;45815;52.334;5.024;2022-09-27T02:28:42;99738.38;;;10.93;100.00
58955;BME280;45815;52.334;5.024;2022-09-27T02:31:20;99721.75;;;10.97;100.00
58955;BME280;45815;52.334;5.024;2022-09-27T02:33:52;99713.84;;;10.91;100.00
58955;BME280;45815;52.334;5.024;2022-09-27T02:36:19;99703.38;;;10.97;100.00
58955;BME280;45815;52.334;5.024;2022-09-27T02:38:45;99712.13;;;11.01;100.00
58955;BME280;45815;52.334;5.024;2022-09-27T02:41:18;99718.25;;;10.98;100.00
58955;BME280;45815;52.334;5.024;2022-09-27T02:43:47;99726.13;;;11.01;100.00
58955;BME280;45815;52.334;5.024;2022-09-27T02:51:17;99714.72;;;10.97;100.00
58955;BME280;45815;52.334;5.024;2022-09-27T02:54:11;99716.50;;;10.94;100.00
58955;BME280;45815;52.334;5.024;2022-09-27T02:59:52;99727.00;;;10.80;100.00
58955;BME280;45815;52.334;5.024;2022-09-27T03:05:41;99734.88;;;10.94;100.00
58955;BME280;45815;52.334;5.024;2022-09-27T03:08:08;99740.09;;;10.95;100.00
58955;BME280;45815;52.334;5.024;2022-09-27T03:10:34;99738.38;;;10.96;100.00
58955;BME280;45815;52.334;5.024;2022-09-27T03:13:00;99741.00;;;10.93;100.00
58955;BME280;45815;52.334;5.024;2022-09-27T03:15:26;99734.00;;;10.90;100.00
58955;BME280;45815;52.334;5.024;2022-09-27T03:18:12;99738.38;;;10.93;100.00
58955;BME280;45815;52.334;5.024;2022-09-27T03:20:40;99733.13;;;10.91;100.00
58955;BME280;45815;52.334;5.024;2022-09-27T03:23:11;99736.63;;;10.92;100.00
58955;BME280;45815;52.334;5.024;2022-09-27T03:25:36;99732.25;;;10.94;100.00
58955;BME280;45815;52.334;5.024;2022-09-27T03:28:02;99737.50;;;10.94;100.00
58955;BME280;45815;52.334;5.024;2022-09-27T03:30:28;99728.75;;;10.92;100.00
58955;BME280;45815;52.334;5.024;2022-09-27T03:32:53;99725.25;;;10.93;100.00
58955;BME280;45815;52.334;5.024;2022-09-27T03:35:37;99725.25;;;10.88;100.00
58955;BME280;45815;52.334;5.024;2022-09-27T03:38:04;99734.88;;;10.85;100.00
58955;BME280;45815;52.334;5.024;2022-09-27T03:40:30;99734.00;;;10.83;100.00
58955;BME280;45815;52.334;5.024;2022-09-27T03:42:56;99727.88;;;10.77;100.00
58955;BME280;45815;52.334;5.024;2022-09-27T03:45:21;99727.00;;;10.78;100.00
58955;BME280;45815;52.334;5.024;2022-09-27T03:47:47;99727.00;;;10.74;100.00
58955;BME280;45815;52.334;5.024;2022-09-27T03:50:13;99726.09;;;10.72;100.00
58955;BME280;45815;52.334;5.024;2022-09-27T03:52:39;99712.13;;;10.62;100.00
58955;BME280;45815;52.334;5.024;2022-09-27T03:55:05;99716.50;;;10.69;100.00
58955;BME280;45815;52.334;5.024;2022-09-27T03:57:30;99726.13;;;10.73;100.00
58955;BME280;45815;52.334;5.024;2022-09-27T03:59:57;99734.84;;;10.69;100.00
58955;BME280;45815;52.334;5.024;2022-09-27T04:02:40;99726.09;;;10.67;100.00
58955;BME280;45815;52.334;5.024;2022-09-27T04:05:24;99727.88;;;10.68;100.00
58955;BME280;45815;52.334;5.024;2022-09-27T04:07:55;99726.97;;;10.65;100.00
58955;BME280;45815;52.334;5.024;2022-09-27T04:10:21;99729.63;;;10.63;100.00
58955;BME280;45815;52.334;5.024;2022-09-27T04:12:47;99738.34;;;10.62;100.00
58955;BME280;45815;52.334;5.024;2022-09-27T04:15:13;99729.59;;;10.60;100.00
58955;BME280;45815;52.334;5.024;2022-09-27T04:17:47;99738.38;;;10.61;100.00
58955;BME280;45815;52.334;5.024;2022-09-27T04:20:35;99738.34;;;10.59;100.00
58955;BME280;45815;52.334;5.024;2022-09-27T04:23:10;99752.34;;;10.55;100.00
58955;BME280;45815;52.334;5.024;2022-09-27T04:25:39;99744.47;;;10.53;100.00
58955;BME280;45815;52.334;5.024;2022-09-27T04:28:27;99750.59;;;10.54;100.00
58955;BME280;45815;52.334;5.024;2022-09-27T04:30:54;99760.22;;;10.55;100.00
58955;BME280;45815;52.334;5.024;2022-09-27T04:33:45;99754.09;;;10.53;100.00
58955;BME280;45815;52.334;5.024;2022-09-27T04:36:20;99748.84;;;10.51;100.00
58955;BME280;45815;52.334;5.024;2022-09-27T04:39:07;99744.47;;;10.49;100.00
58955;BME280;45815;52.334;5.024;2022-09-27T04:41:36;99740.09;;;10.45;100.00
58955;BME280;45815;52.334;5.024;2022-09-27T04:44:02;99738.34;;;10.47;100.00
58955;BME280;45815;52.334;5.024;2022-09-27T04:46:28;99725.22;;;10.41;100.00
58955;BME280;45815;52.334;5.024;2022-09-27T04:48:58;99732.22;;;10.51;100.00
58955;BME280;45815;52.334;5.024;2022-09-27T04:51:24;99730.47;;;10.48;100.00
58955;BME280;45815;52.334;5.024;2022-09-27T04:53:50;99734.84;;;10.48;100.00
58955;BME280;45815;52.334;5.024;2022-09-27T04:56:16;99737.44;;;10.46;100.00
58955;BME280;45815;52.334;5.024;2022-09-27T04:58:41;99743.59;;;10.47;100.00
58955;BME280;45815;52.334;5.024;2022-09-27T05:01:07;99738.34;;;10.48;100.00
58955;BME280;45815;52.334;5.024;2022-09-27T05:03:52;99741.84;;;10.47;100.00
58955;BME280;45815;52.334;5.024;2022-09-27T05:06:17;99741.84;;;10.47;100.00
58955;BME280;45815;52.334;5.024;2022-09-27T05:08:43;99753.19;;;10.48;100.00
58955;BME280;45815;52.334;5.024;2022-09-27T05:11:24;99748.84;;;10.47;100.00
58955;BME280;45815;52.334;5.024;2022-09-27T05:14:07;99750.59;;;10.45;100.00
58955;BME280;45815;52.334;5.024;2022-09-27T05:16:42;99748.84;;;10.47;100.00
58955;BME280;45815;52.334;5.024;2022-09-27T05:19:26;99753.22;;;10.45;100.00
58955;BME280;45815;52.334;5.024;2022-09-27T05:22:01;99753.19;;;10.42;100.00
58955;BME280;45815;52.334;5.024;2022-09-27T05:24:27;99751.44;;;10.38;100.00
58955;BME280;45815;52.334;5.024;2022-09-27T05:26:53;99748.78;;;10.31;100.00
58955;BME280;45815;52.334;5.024;2022-09-27T05:29:19;99750.50;;;10.26;100.00
58955;BME280;45815;52.334;5.024;2022-09-27T05:31:56;99761.88;;;10.27;100.00
58955;BME280;45815;52.334;5.024;2022-09-27T05:34:21;99764.53;;;10.28;100.00
58955;BME280;45815;52.334;5.024;2022-09-27T05:36:56;99771.53;;;10.34;100.00
58955;BME280;45815;52.334;5.024;2022-09-27T05:39:21;99763.63;;;10.26;100.00
58955;BME280;45815;52.334;5.024;2022-09-27T05:41:47;99768.91;;;10.31;100.00
58955;BME280;45815;52.334;5.024;2022-09-27T05:44:15;99780.28;;;10.39;100.00
58955;BME280;45815;52.334;5.024;2022-09-27T05:46:48;99779.44;;;10.46;100.00
58955;BME280;45815;52.334;5.024;2022-09-27T05:49:13;99789.06;;;10.52;100.00
58955;BME280;45815;52.334;5.024;2022-09-27T05:51:39;99786.44;;;10.53;100.00
58955;BME280;45815;52.334;5.024;2022-09-27T05:54:05;99792.56;;;10.55;100.00
58955;BME280;45815;52.334;5.024;2022-09-27T05:56:31;99788.22;;;10.56;100.00
58955;BME280;45815;52.334;5.024;2022-09-27T05:59:19;99775.09;;;10.59;100.00
58955;BME280;45815;52.334;5.024;2022-09-27T06:02:16;99776.84;;;10.65;100.00
58955;BME280;45815;52.334;5.024;2022-09-27T06:04:42;99774.22;;;10.69;100.00
58955;BME280;45815;52.334;5.024;2022-09-27T06:07:29;99783.84;;;10.72;100.00
58955;BME280;45815;52.334;5.024;2022-09-27T06:09:56;99789.13;;;10.70;100.00
58955;BME280;45815;52.334;5.024;2022-09-27T06:12:21;99790.84;;;10.70;100.00
58955;BME280;45815;52.334;5.024;2022-09-27T06:14:47;99795.22;;;10.71;100.00
58955;BME280;45815;52.334;5.024;2022-09-27T06:17:25;99805.72;;;10.74;100.00
58955;BME280;45815;52.334;5.024;2022-09-27T06:19:50;99810.97;;;10.78;100.00
58955;BME280;45815;52.334;5.024;2022-09-27T06:22:15;99803.97;;;10.71;100.00
58955;BME280;45815;52.334;5.024;2022-09-27T06:24:51;99811.00;;;10.72;100.00
58955;BME280;45815;52.334;5.024;2022-09-27T06:27:21;99807.47;;;10.72;100.00
58955;BME280;45815;52.334;5.024;2022-09-27T06:30:12;99810.13;;;10.70;100.00
58955;BME280;45815;52.334;5.024;2022-09-27T06:32:58;99810.13;;;10.70;100.00
58955;BME280;45815;52.334;5.024;2022-09-27T06:35:39;99804.00;;;10.81;100.00
58955;BME280;45815;52.334;5.024;2022-09-27T06:38:07;99802.25;;;10.84;100.00
58955;BME280;45815;52.334;5.024;2022-09-27T06:40:36;99803.13;;;10.85;100.00
58955;BME280;45815;52.334;5.024;2022-09-27T06:43:34;99798.72;;;10.84;100.00
58955;BME280;45815;52.334;5.024;2022-09-27T06:46:31;99796.13;;;10.84;100.00
58955;BME280;45815;52.334;5.024;2022-09-27T06:49:06;99797.88;;;10.85;100.00
58955;BME280;45815;52.334;5.024;2022-09-27T06:51:31;99803.13;;;10.85;100.00
58955;BME280;45815;52.334;5.024;2022-09-27T06:53:57;99807.50;;;10.84;100.00
58955;BME280;45815;52.334;5.024;2022-09-27T06:56:23;99819.75;;;10.88;100.00
58955;BME280;45815;52.334;5.024;2022-09-27T06:58:50;99805.75;;;10.88;100.00
58955;BME280;45815;52.334;5.024;2022-09-27T07:01:40;99805.75;;;10.89;100.00
58955;BME280;45815;52.334;5.024;2022-09-27T07:04:24;99809.28;;;10.96;100.00
58955;BME280;45815;52.334;5.024;2022-09-27T07:06:58;99808.38;;;10.97;100.00
58955;BME280;45815;52.334;5.024;2022-09-27T07:09:28;99811.91;;;11.05;100.00
58955;BME280;45815;52.334;5.024;2022-09-27T07:11:55;99814.53;;;11.13;100.00
58955;BME280;45815;52.334;5.024;2022-09-27T07:14:20;99807.50;;;11.12;100.00
58955;BME280;45815;52.334;5.024;2022-09-27T07:16:46;99818.03;;;11.10;100.00
58955;BME280;45815;52.334;5.024;2022-09-27T07:19:12;99816.25;;;11.14;100.00
58955;BME280;45815;52.334;5.024;2022-09-27T07:21:39;99818.88;;;11.14;100.00
58955;BME280;45815;52.334;5.024;2022-09-27T07:24:05;99824.16;;;11.18;100.00
58955;BME280;45815;52.334;5.024;2022-09-27T07:26:31;99831.16;;;11.26;100.00
58955;BME280;45815;52.334;5.024;2022-09-27T07:28:57;99825.00;;;11.19;100.00
58955;BME280;45815;52.334;5.024;2022-09-27T07:31:25;99827.66;;;11.20;100.00
58955;BME280;45815;52.334;5.024;2022-09-27T07:33:50;99825.91;;;11.24;100.00
58955;BME280;45815;52.334;5.024;2022-09-27T07:36:17;99831.16;;;11.29;100.00
58955;BME280;45815;52.334;5.024;2022-09-27T07:38:44;99832.91;;;11.30;100.00
58955;BME280;45815;52.334;5.024;2022-09-27T07:41:12;99818.91;;;11.28;100.00
58955;BME280;45815;52.334;5.024;2022-09-27T07:43:40;99830.28;;;11.40;100.00
58955;BME280;45815;52.334;5.024;2022-09-27T07:46:06;99832.88;;;11.47;100.00
58955;BME280;45815;52.334;5.024;2022-09-27T07:48:52;99838.16;;;11.57;100.00
58955;BME280;45815;52.334;5.024;2022-09-27T07:51:34;99854.78;;;11.44;100.00
58955;BME280;45815;52.334;5.024;2022-09-27T07:54:12;99866.16;;;11.58;100.00
58955;BME280;45815;52.334;5.024;2022-09-27T07:56:48;99867.06;;;11.42;100.00
58955;BME280;45815;52.334;5.024;2022-09-27T07:59:16;99862.69;;;11.38;100.00
58955;BME280;45815;52.334;5.024;2022-09-27T08:01:41;99858.28;;;11.35;100.00
58955;BME280;45815;52.334;5.024;2022-09-27T08:04:07;99860.06;;;11.33;100.00
58955;BME280;45815;52.334;5.024;2022-09-27T08:06:32;99843.41;;;11.20;100.00
58955;BME280;45815;52.334;5.024;2022-09-27T08:08:57;99839.91;;;11.18;100.00
58955;BME280;45815;52.334;5.024;2022-09-27T08:11:24;99836.41;;;11.23;100.00
58955;BME280;45815;52.334;5.024;2022-09-27T08:13:51;99835.53;;;11.27;100.00
58955;BME280;45815;52.334;5.024;2022-09-27T08:16:20;99842.53;;;11.29;100.00
58955;BME280;45815;52.334;5.024;2022-09-27T08:19:09;99852.19;;;11.29;100.00
58955;BME280;45815;52.334;5.024;2022-09-27T08:21:41;99842.56;;;11.31;100.00
58955;BME280;45815;52.334;5.024;2022-09-27T08:24:21;99848.66;;;11.30;100.00
58955;BME280;45815;52.334;5.024;2022-09-27T08:27:01;99857.41;;;11.35;100.00
58955;BME280;45815;52.334;5.024;2022-09-27T08:29:40;99860.03;;;11.35;100.00
58955;BME280;45815;52.334;5.024;2022-09-27T08:32:07;99867.06;;;11.36;100.00
58955;BME280;45815;52.334;5.024;2022-09-27T08:34:32;99881.06;;;11.35;100.00
58955;BME280;45815;52.334;5.024;2022-09-27T08:36:59;99877.56;;;11.31;100.00
58955;BME280;45815;52.334;5.024;2022-09-27T08:39:24;99881.09;;;11.33;100.00
58955;BME280;45815;52.334;5.024;2022-09-27T08:42:35;99875.81;;;11.26;100.00
58955;BME280;45815;52.334;5.024;2022-09-27T08:45:12;99876.72;;;11.31;100.00
58955;BME280;45815;52.334;5.024;2022-09-27T08:48:15;99881.06;;;11.39;100.00
58955;BME280;45815;52.334;5.024;2022-09-27T08:50:40;99881.09;;;11.41;100.00
58955;BME280;45815;52.334;5.024;2022-09-27T08:53:19;99878.44;;;11.44;100.00
58955;BME280;45815;52.334;5.024;2022-09-27T08:55:48;99886.34;;;11.46;100.00
58955;BME280;45815;52.334;5.024;2022-09-27T08:58:25;99885.47;;;11.45;100.00
58955;BME280;45815;52.334;5.024;2022-09-27T09:00:53;99875.81;;;11.50;100.00
58955;BME280;45815;52.334;5.024;2022-09-27T09:03:25;99879.34;;;11.52;100.00
58955;BME280;45815;52.334;5.024;2022-09-27T09:06:18;99880.19;;;11.51;100.00
58955;BME280;45815;52.334;5.024;2022-09-27T09:11:39;99887.22;;;11.55;100.00
58955;BME280;45815;52.334;5.024;2022-09-27T09:23:45;99906.50;;;11.54;100.00
58955;BME280;45815;52.334;5.024;2022-09-27T09:26:27;99907.34;;;11.61;100.00
58955;BME280;45815;52.334;5.024;2022-09-27T09:31:41;99902.09;;;11.50;100.00
58955;BME280;45815;52.334;5.024;2022-09-27T09:34:17;99909.97;;;11.44;100.00
58955;BME280;45815;52.334;5.024;2022-09-27T09:39:42;99916.97;;;11.31;100.00
58955;BME280;45815;52.334;5.024;2022-09-27T09:42:36;99912.59;;;11.19;100.00
58955;BME280;45815;52.334;5.024;2022-09-27T09:47:39;99898.56;;;11.28;100.00
58955;BME280;45815;52.334;5.024;2022-09-27T09:50:24;99897.72;;;11.26;100.00
58955;BME280;45815;52.334;5.024;2022-09-27T09:53:14;99899.47;;;11.27;100.00
58955;BME280;45815;52.334;5.024;2022-09-27T09:55:42;99887.19;;;11.29;100.00
58955;BME280;45815;52.334;5.024;2022-09-27T09:58:18;99878.47;;;11.29;100.00
58955;BME280;45815;52.334;5.024;2022-09-27T10:00:50;99877.56;;;11.28;100.00
58955;BME280;45815;52.334;5.024;2022-09-27T10:03:18;99876.72;;;11.31;100.00
58955;BME280;45815;52.334;5.024;2022-09-27T10:05:44;99865.31;;;11.30;100.00
58955;BME280;45815;52.334;5.024;2022-09-27T10:08:19;99867.06;;;11.37;100.00
58955;BME280;45815;52.334;5.024;2022-09-27T10:10:49;99869.69;;;11.45;100.00
58955;BME280;45815;52.334;5.024;2022-09-27T10:13:43;99869.69;;;11.51;100.00
58955;BME280;45815;52.334;5.024;2022-09-27T10:16:13;99867.94;;;11.59;100.00
58955;BME280;45815;52.334;5.024;2022-09-27T10:18:40;99864.44;;;11.67;100.00
58955;BME280;45815;52.334;5.024;2022-09-27T10:21:21;99867.91;;;11.70;100.00
58955;BME280;45815;52.334;5.024;2022-09-27T10:24:10;99876.69;;;11.71;100.00
58955;BME280;45815;52.334;5.024;2022-09-27T10:26:56;99867.91;;;11.75;100.00
58955;BME280;45815;52.334;5.024;2022-09-27T10:29:33;99867.03;;;11.70;100.00
58955;BME280;45815;52.334;5.024;2022-09-27T10:32:02;99874.06;;;11.71;100.00
58955;BME280;45815;52.334;5.024;2022-09-27T10:34:41;99883.72;;;11.69;100.00
58955;BME280;45815;52.334;5.024;2022-09-27T10:37:16;99870.56;;;11.53;100.00
58955;BME280;45815;52.334;5.024;2022-09-27T10:39:53;99881.06;;;11.61;100.00
58955;BME280;45815;52.334;5.024;2022-09-27T10:42:31;99873.19;;;11.41;100.00
58955;BME280;45815;52.334;5.024;2022-09-27T10:47:53;99895.97;;;11.44;100.00
58955;BME280;45815;52.334;5.024;2022-09-27T10:50:26;99892.47;;;11.43;100.00
58955;BME280;45815;52.334;5.024;2022-09-27T10:53:14;99904.72;;;11.29;100.00
58955;BME280;45815;52.334;5.024;2022-09-27T10:55:47;99887.22;;;11.34;100.00
58955;BME280;45815;52.334;5.024;2022-09-27T10:58:18;99873.19;;;11.23;100.00
58955;BME280;45815;52.334;5.024;2022-09-27T11:00:54;99892.47;;;11.22;100.00
58955;BME280;45815;52.334;5.024;2022-09-27T11:03:24;99892.44;;;11.25;100.00
58955;BME280;45815;52.334;5.024;2022-09-27T11:05:50;99888.06;;;11.24;100.00
58955;BME280;45815;52.334;5.024;2022-09-27T11:13:26;99886.34;;;11.24;100.00
58955;BME280;45815;52.334;5.024;2022-09-27T11:29:56;99902.06;;;11.15;100.00
58955;BME280;45815;52.334;5.024;2022-09-27T11:38:35;99898.56;;;11.04;100.00
58955;BME280;45815;52.334;5.024;2022-09-27T11:41:39;99897.66;;;10.92;100.00
58955;BME280;45815;52.334;5.024;2022-09-27T11:52:25;99904.66;;;10.92;100.00
58955;BME280;45815;52.334;5.024;2022-09-27T12:04:28;99901.91;;;10.56;100.00
58955;BME280;45815;52.334;5.024;2022-09-27T12:09:34;99896.63;;;10.50;100.00
58955;BME280;45815;52.334;5.024;2022-09-27T12:12:11;99896.59;;;10.41;100.00
58955;BME280;45815;52.334;5.024;2022-09-27T12:15:01;99893.94;;;10.30;100.00
58955;BME280;45815;52.334;5.024;2022-09-27T12:17:30;99900.94;;;10.34;100.00
58955;BME280;45815;52.334;5.024;2022-09-27T12:20:03;99889.53;;;10.28;100.00
58955;BME280;45815;52.334;5.024;2022-09-27T12:22:53;99906.97;;;10.23;100.00
58955;BME280;45815;52.334;5.024;2022-09-27T12:25:29;99912.22;;;10.27;100.00
58955;BME280;45815;52.334;5.024;2022-09-27T12:28:06;99899.94;;;10.15;100.00
58955;BME280;45815;52.334;5.024;2022-09-27T12:30:39;99913.94;;;10.22;100.00
58955;BME280;45815;52.334;5.024;2022-09-27T12:33:22;99919.22;;;10.24;100.00
58955;BME280;45815;52.334;5.024;2022-09-27T12:35:56;99899.09;;;10.21;100.00
58955;BME280;45815;52.334;5.024;2022-09-27T12:38:34;99899.13;;;10.27;100.00
58955;BME280;45815;52.334;5.024;2022-09-27T12:41:04;99901.81;;;10.30;100.00
58955;BME280;45815;52.334;5.024;2022-09-27T12:43:43;99900.97;;;10.38;100.00
58955;BME280;45815;52.334;5.024;2022-09-27T12:46:31;99897.44;;;10.34;100.00
58955;BME280;45815;52.334;5.024;2022-09-27T12:51:40;99888.75;;;10.46;100.00
58955;BME280;45815;52.334;5.024;2022-09-27T12:57:02;99896.59;;;10.38;100.00
58955;BME280;45815;52.334;5.024;2022-09-27T13:08:12;99894.88;;;10.48;100.00
58955;BME280;45815;52.334;5.024;2022-09-27T13:13:31;99872.97;;;10.33;100.00
58955;BME280;45815;52.334;5.024;2022-09-27T13:15:59;99898.41;;;10.51;100.00
58955;BME280;45815;52.334;5.024;2022-09-27T13:20:58;99891.47;;;10.69;100.00
58955;BME280;45815;52.334;5.024;2022-09-27T13:26:19;99883.66;;;10.98;100.00
58955;BME280;45815;52.334;5.024;2022-09-27T13:37:45;99858.19;;;12.17;100.00
58955;BME280;45815;52.334;5.024;2022-09-27T13:45:59;99839.47;;;12.81;100.00
58955;BME280;45815;52.334;5.024;2022-09-27T13:48:36;99825.25;;;13.04;100.00
58955;BME280;45815;52.334;5.024;2022-09-27T13:51:41;99830.50;;;13.10;100.00
58955;BME280;45815;52.334;5.024;2022-09-27T13:57:00;99812.19;;;12.95;100.00
58955;BME280;45815;52.334;5.024;2022-09-27T13:59:35;99813.09;;;12.87;100.00
58955;BME280;45815;52.334;5.024;2022-09-27T14:02:35;99810.44;;;12.87;100.00
58955;BME280;45815;52.334;5.024;2022-09-27T14:05:02;99813.16;;;12.81;100.00
58955;BME280;45815;52.334;5.024;2022-09-27T14:07:42;99813.22;;;12.72;100.00
58955;BME280;45815;52.334;5.024;2022-09-27T14:10:17;99814.06;;;12.71;100.00
58955;BME280;45815;52.334;5.024;2022-09-27T14:12:45;99811.50;;;12.65;100.00
58955;BME280;45815;52.334;5.024;2022-09-27T14:15:18;99814.19;;;12.54;100.00
58955;BME280;45815;52.334;5.024;2022-09-27T14:17:45;99804.59;;;12.45;100.00
58955;BME280;45815;52.334;5.024;2022-09-27T14:22:59;99818.63;;;12.38;100.00
58955;BME280;45815;52.334;5.024;2022-09-27T14:25:30;99809.03;;;12.33;100.00
58955;BME280;45815;52.334;5.024;2022-09-27T14:27:56;99797.63;;;12.32;100.00
58955;BME280;45815;52.334;5.024;2022-09-27T14:30:43;99795.88;;;12.34;100.00
58955;BME280;45815;52.334;5.024;2022-09-27T14:33:33;99787.16;;;12.23;100.00
58955;BME280;45815;52.334;5.024;2022-09-27T14:36:22;99784.53;;;12.23;100.00
58955;BME280;45815;52.334;5.024;2022-09-27T14:39:22;99780.13;;;12.25;100.00
58955;BME280;45815;52.334;5.024;2022-09-27T14:41:50;99780.97;;;12.36;100.00
58955;BME280;45815;52.334;5.024;2022-09-27T14:44:17;99773.00;;;12.42;100.00
58955;BME280;45815;52.334;5.024;2022-09-27T14:46:44;99767.69;;;12.52;100.00
58955;BME280;45815;52.334;5.024;2022-09-27T14:49:23;99766.00;;;12.46;100.00
58955;BME280;45815;52.334;5.024;2022-09-27T14:51:53;99763.31;;;12.51;100.00
58955;BME280;45815;52.334;5.024;2022-09-27T14:54:25;99766.78;;;12.56;100.00
58955;BME280;45815;52.334;5.024;2022-09-27T14:56:51;99769.50;;;12.40;100.00
58955;BME280;45815;52.334;5.024;2022-09-27T14:59:25;99779.97;;;12.50;100.00
58955;BME280;45815;52.334;5.024;2022-09-27T15:01:52;99772.13;;;12.48;100.00
58955;BME280;45815;52.334;5.024;2022-09-27T15:04:20;99772.13;;;12.40;100.00
58955;BME280;45815;52.334;5.024;2022-09-27T15:06:47;99768.72;;;12.28;100.00
58955;BME280;45815;52.334;5.024;2022-09-27T15:09:14;99783.63;;;12.24;100.00
58955;BME280;45815;52.334;5.024;2022-09-27T15:11:40;99775.75;;;12.22;100.00
58955;BME280;45815;52.334;5.024;2022-09-27T15:14:12;99780.13;;;12.22;100.00
58955;BME280;45815;52.334;5.024;2022-09-27T15:16:39;99776.66;;;12.18;100.00
58955;BME280;45815;52.334;5.024;2022-09-27T15:19:22;99763.56;;;12.04;100.00
58955;BME280;45815;52.334;5.024;2022-09-27T15:21:48;99767.06;;;12.08;100.00
58955;BME280;45815;52.334;5.024;2022-09-27T15:24:36;99761.84;;;11.97;100.00
58955;BME280;45815;52.334;5.024;2022-09-27T15:27:04;99760.91;;;12.08;100.00
58955;BME280;45815;52.334;5.024;2022-09-27T15:29:30;99753.03;;;12.04;100.00
58955;BME280;45815;52.334;5.024;2022-09-27T15:32:02;99753.94;;;11.96;100.00
58955;BME280;45815;52.334;5.024;2022-09-27T15:34:28;99746.06;;;11.91;100.00
58955;BME280;45815;52.334;5.024;2022-09-27T15:36:56;99749.59;;;11.89;100.00
58955;BME280;45815;52.334;5.024;2022-09-27T15:47:00;99750.50;;;11.74;100.00
58955;BME280;45815;52.334;5.024;2022-09-27T15:49:30;99755.78;;;11.71;100.00
58955;BME280;45815;52.334;5.024;2022-09-27T15:51:59;99748.72;;;11.73;100.00
58955;BME280;45815;52.334;5.024;2022-09-27T15:54:28;99757.50;;;11.73;100.00
58955;BME280;45815;52.334;5.024;2022-09-27T15:56:55;99747.00;;;11.69;100.00
58955;BME280;45815;52.334;5.024;2022-09-27T15:59:27;99747.00;;;11.72;100.00